LTCI Airport Information

Runway Information
Runway 03 Length 9022 ft width 148 ft
Elevation 5412 ft Threshold 0 ft Heading 38
Runway 21 Length 9022 ft Width 148 ft
Elevation 5474 ft Threshold 0 ft Heading 218
Airport Frequencies
Type APP Name APP Frequency 118.1 MHZ
Type GND Name GND Frequency 121.9 MHZ
Type TWR Name TWR Frequency 118.1 MHZ
Airport Navaids
Type VOR-DME Name Van Frequency 115200 KHZ
Type NDB Name Van Frequency 397 KHZ
Airport Weather Information & NOTAM
ADDS - METARS form results

(2234 UTC 19 September 2018)
Data provider http://aviationweather.gov/metar/data/
 
METAR text: LTCI 192150Z 08007KT CAVOK 17/07 Q1020 NOSIG
Conditions at: LTCI (VAN , TR) observed 2150 UTC 19 September 2018
Temperature: 17.0°C (63°F)
Dewpoint: 7.0°C (45°F) [RH = 52%]
Pressure (altimeter): 30.12 inches Hg (1020.0 mb)
Winds: from the E (80 degrees) at 8 MPH (7 knots; 3.6 m/s)
Visibility: 6 or more miles (10+ km)
Ceiling: ceiling and visibility are OK
Clouds: unknown
Weather: no significant weather observed at this time

Forecast for: LTCI (VAN , TR)
Text: TAF LTCI 191940Z 1921/2006 VRB02KT CAVOK
Forecast period: 2100 UTC 19 September 2018 to 0600 UTC 20 September 2018
Forecast type: FROM: standard forecast or significant change
Winds: variable direction winds at 2 MPH (2 knots; 1.0 m/s)
Visibility: 6 or more miles 10+ km)
Ceiling: unknown
Clouds: missing
Weather: NSW  (no significant weather)